createdAt,value
2019-01-26T00:01:28.015Z,0.21
2019-01-26T00:04:17.540Z,-0.30
2019-01-26T00:16:27.248Z,-0.34
2019-01-26T00:19:15.511Z,-0.31
2019-01-26T00:22:03.010Z,-0.29
2019-01-26T00:24:50.939Z,-0.26
2019-01-26T00:27:38.704Z,-0.25
2019-01-26T00:30:25.749Z,-0.21
2019-01-26T00:36:21.701Z,-0.17
2019-01-26T00:39:13.012Z,-0.14
2019-01-26T00:42:00.451Z,-0.11
2019-01-26T00:44:47.623Z,-0.10
2019-01-26T00:47:42.722Z,-0.06
2019-01-26T00:53:36.500Z,-0.01
2019-01-26T00:56:26.328Z,0.02
2019-01-26T00:59:14.256Z,0.05
2019-01-26T01:02:02.389Z,0.09
2019-01-26T01:04:49.850Z,0.11
2019-01-26T01:13:51.029Z,0.32
2019-01-26T01:16:38.480Z,0.31
2019-01-26T01:19:26.035Z,0.28
2019-01-26T01:28:26.277Z,0.25
2019-01-26T01:31:17.678Z,0.26
2019-01-26T01:37:19.742Z,1.11
2019-01-26T01:40:07.355Z,0.51
2019-01-26T01:42:55.798Z,0.42
2019-01-26T01:45:42.885Z,0.39
2019-01-26T01:48:30.346Z,0.40
2019-01-26T01:51:24.632Z,0.42
2019-01-26T01:54:12.221Z,0.43
2019-01-26T01:56:59.755Z,0.45
2019-01-26T01:59:47.344Z,0.46
2019-01-26T02:02:40.016Z,0.47
2019-01-26T02:05:27.137Z,0.48
2019-01-26T02:08:14.144Z,0.51
2019-01-26T02:11:02.198Z,0.51
2019-01-26T02:13:51.424Z,0.53
2019-01-26T02:16:40.732Z,0.55
2019-01-26T02:19:27.930Z,0.56
2019-01-26T02:22:15.061Z,1.33
2019-01-26T02:25:02.818Z,0.85
2019-01-26T02:27:52.505Z,0.77
2019-01-26T02:30:43.665Z,0.75
2019-01-26T02:33:41.631Z,0.73
2019-01-26T02:36:32.549Z,0.72
2019-01-26T02:39:20.461Z,0.74
2019-01-26T02:42:09.325Z,0.70
2019-01-26T02:44:59.599Z,0.72
2019-01-26T02:47:52.487Z,0.73
2019-01-26T02:50:51.376Z,0.73
2019-01-26T02:53:46.654Z,0.74
2019-01-26T02:56:34.935Z,1.49
2019-01-26T02:59:24.988Z,0.98
2019-01-26T03:02:11.983Z,0.92
2019-01-26T03:04:59.401Z,1.67
2019-01-26T03:07:46.857Z,1.15
2019-01-26T03:10:34.553Z,1.03
2019-01-26T03:13:21.928Z,1.00
2019-01-26T03:16:09.335Z,0.98
2019-01-26T03:18:57.494Z,1.75
2019-01-26T03:21:44.650Z,1.28
2019-01-26T03:27:38.752Z,1.19
2019-01-26T03:30:26.477Z,1.16
2019-01-26T03:33:22.309Z,1.96
2019-01-26T03:36:10.321Z,1.44
2019-01-26T03:39:01.191Z,1.39
2019-01-26T03:41:46.289Z,2.14
2019-01-26T03:47:41.012Z,2.38
2019-01-26T03:50:28.413Z,1.80
2019-01-26T03:53:16.288Z,2.48
2019-01-26T03:56:04.926Z,1.86
2019-01-26T03:58:53.284Z,1.76
2019-01-26T04:01:40.486Z,1.69
2019-01-26T04:04:28.237Z,2.46
2019-01-26T04:07:16.034Z,1.88
2019-01-26T04:10:03.801Z,2.57
2019-01-26T04:12:51.910Z,2.00
2019-01-26T04:15:39.598Z,1.89
2019-01-26T04:18:26.944Z,1.79
2019-01-26T04:24:20.553Z,2.03
2019-01-26T04:27:15.918Z,1.91
2019-01-26T04:30:04.313Z,1.85
2019-01-26T04:32:52.092Z,1.78
2019-01-26T04:35:39.513Z,1.80
2019-01-26T04:38:26.710Z,1.77
2019-01-26T04:41:15.330Z,1.79
2019-01-26T04:44:05.097Z,2.55
2019-01-26T04:46:52.562Z,2.05
2019-01-26T04:49:40.021Z,2.74
2019-01-26T04:52:27.754Z,2.19
2019-01-26T04:55:14.848Z,2.06
2019-01-26T04:58:02.267Z,1.98
2019-01-26T05:00:52.127Z,1.96
2019-01-26T05:03:39.537Z,1.94
2019-01-26T05:06:26.477Z,1.95
2019-01-26T05:09:13.751Z,1.90
2019-01-26T05:18:13.048Z,1.93
2019-01-26T05:21:00.471Z,1.93
2019-01-26T05:23:47.902Z,1.93
2019-01-26T05:26:35.313Z,1.91
2019-01-26T05:29:22.544Z,2.68
2019-01-26T05:32:09.851Z,2.18
2019-01-26T05:34:57.363Z,2.89
2019-01-26T05:37:44.736Z,2.30
2019-01-26T05:46:44.376Z,2.10
2019-01-26T05:49:47.250Z,2.11
2019-01-26T05:52:34.788Z,2.08
2019-01-26T05:55:22.277Z,2.06
2019-01-26T05:58:09.596Z,2.00
2019-01-26T06:00:56.916Z,2.00
2019-01-26T06:03:44.296Z,2.03
2019-01-26T06:06:32.144Z,2.03
2019-01-26T06:09:19.694Z,2.03
2019-01-26T06:12:06.818Z,2.76
2019-01-26T06:14:53.957Z,2.30
2019-01-26T06:17:43.468Z,2.99
2019-01-26T06:23:45.005Z,3.35
2019-01-26T06:26:33.080Z,2.68
2019-01-26T06:29:20.399Z,2.47
2019-01-26T06:32:07.376Z,2.39
2019-01-26T06:34:55.093Z,2.33
2019-01-26T06:37:42.147Z,2.27
2019-01-26T06:40:29.609Z,3.02
2019-01-26T06:46:23.043Z,2.34
2019-01-26T06:49:11.376Z,3.08
2019-01-26T06:51:58.959Z,2.55
2019-01-26T06:54:46.286Z,2.41
2019-01-26T06:57:33.782Z,3.15
2019-01-26T07:00:24.512Z,2.54
2019-01-26T07:03:12.024Z,2.39
2019-01-26T07:06:02.106Z,2.37
2019-01-26T07:11:56.144Z,2.33
2019-01-26T07:14:43.521Z,2.33
2019-01-26T07:17:31.851Z,2.33
2019-01-26T07:20:18.322Z,2.31
2019-01-26T07:23:05.618Z,2.34
2019-01-26T07:25:53.360Z,2.34
2019-01-26T07:28:40.684Z,2.37
2019-01-26T07:31:28.310Z,2.36
2019-01-26T07:34:16.545Z,2.39
2019-01-26T07:37:03.413Z,2.44
2019-01-26T07:39:52.479Z,2.44
2019-01-26T07:42:40.101Z,2.44
2019-01-26T07:45:27.687Z,2.49
2019-01-26T07:48:16.832Z,2.50
2019-01-26T07:51:02.370Z,3.29
2019-01-26T08:00:05.018Z,2.70
2019-01-26T08:02:59.416Z,2.70
2019-01-26T08:05:46.968Z,2.71
2019-01-26T08:08:38.725Z,2.69
2019-01-26T08:11:25.843Z,2.73
2019-01-26T08:14:14.490Z,2.74
2019-01-26T08:17:02.219Z,2.74
2019-01-26T08:19:49.758Z,2.77
2019-01-26T08:22:38.403Z,2.79
2019-01-26T08:25:25.726Z,3.62
2019-01-26T08:28:15.436Z,3.11
2019-01-26T08:31:02.715Z,3.02
2019-01-26T08:33:50.955Z,3.02
2019-01-26T08:36:37.863Z,3.07
2019-01-26T08:39:27.230Z,3.07
2019-01-26T08:42:22.612Z,3.09
2019-01-26T08:48:16.144Z,3.18
2019-01-26T08:51:05.849Z,3.23
2019-01-26T08:57:10.170Z,3.27
2019-01-26T09:03:04.952Z,3.30
2019-01-26T09:05:54.782Z,3.28
2019-01-26T09:11:47.422Z,3.26
2019-01-26T09:14:42.396Z,3.31
2019-01-26T09:17:29.792Z,3.33
2019-01-26T09:23:28.077Z,3.35
2019-01-26T09:32:28.825Z,3.39
2019-01-26T09:35:18.987Z,3.47
2019-01-26T09:38:10.430Z,3.51
2019-01-26T09:40:58.070Z,3.55
2019-01-26T09:43:46.845Z,3.62
2019-01-26T09:49:55.916Z,3.64
2019-01-26T09:53:01.564Z,3.68
2019-01-26T09:55:50.158Z,3.72
2019-01-26T10:01:54.780Z,3.77
2019-01-26T10:04:42.837Z,3.76
2019-01-26T10:10:36.646Z,3.78
2019-01-26T10:13:24.527Z,3.82
2019-01-26T10:16:20.083Z,3.85
2019-01-26T10:19:13.134Z,3.84
2019-01-26T10:22:01.339Z,3.89
2019-01-26T10:24:49.192Z,3.89
2019-01-26T10:27:38.726Z,3.93
2019-01-26T10:30:32.128Z,3.98
2019-01-26T10:33:28.298Z,4.03
2019-01-26T11:01:27.551Z,4.23
2019-01-26T11:04:18.294Z,4.25
2019-01-26T11:07:10.199Z,4.25
2019-01-26T11:09:57.865Z,4.23
2019-01-26T11:12:51.588Z,4.21
2019-01-26T11:15:40.534Z,5.21
2019-01-26T11:21:34.229Z,4.45
2019-01-26T11:24:24.898Z,4.40
2019-01-26T11:30:17.708Z,5.37
2019-01-26T11:36:12.960Z,4.58
2019-01-26T11:42:13.056Z,4.54
2019-01-26T11:45:04.226Z,4.53
2019-01-26T11:47:51.602Z,5.50
2019-01-26T11:50:50.754Z,5.77
2019-01-26T11:53:48.579Z,4.98
2019-01-26T11:59:44.465Z,6.01
2019-01-26T12:02:33.976Z,6.12
2019-01-26T12:05:38.130Z,5.30
2019-01-26T12:08:28.176Z,6.08
2019-01-26T12:11:16.106Z,5.28
2019-01-26T12:14:06.717Z,5.03
2019-01-26T12:16:54.238Z,5.91
2019-01-26T12:19:41.562Z,5.22
2019-01-26T12:22:32.696Z,5.98
2019-01-26T12:25:19.948Z,5.22
2019-01-26T12:31:16.993Z,4.99
2019-01-26T12:34:04.354Z,4.96
2019-01-26T12:37:07.778Z,4.87
2019-01-26T12:39:57.350Z,5.80
2019-01-26T12:45:52.793Z,5.02
2019-01-26T12:48:41.954Z,5.00
2019-01-26T12:57:55.483Z,5.90
2019-01-26T13:00:45.446Z,5.23
2019-01-26T13:03:37.335Z,5.08
2019-01-26T13:09:33.857Z,5.02
2019-01-26T13:12:22.194Z,4.98
2019-01-26T13:18:18.222Z,5.24
2019-01-26T13:21:09.523Z,5.14
2019-01-26T13:23:56.637Z,5.12
2019-01-26T13:26:43.870Z,5.08
2019-01-26T13:29:33.630Z,5.03
2019-01-26T13:35:29.822Z,5.00
2019-01-26T13:38:19.016Z,5.01
2019-01-26T13:41:09.411Z,5.88
2019-01-26T13:50:13.481Z,5.05
2019-01-26T13:53:04.584Z,5.04
2019-01-26T14:05:15.753Z,4.93
2019-01-26T14:08:04.366Z,5.75
2019-01-26T14:11:10.688Z,5.23
2019-01-26T14:14:04.808Z,5.08
2019-01-26T14:20:04.470Z,5.04
2019-01-26T14:22:53.657Z,5.02
2019-01-26T14:25:44.013Z,5.03
2019-01-26T14:28:34.761Z,5.84
2019-01-26T14:31:33.317Z,5.28
2019-01-26T14:34:22.255Z,5.17
2019-01-26T14:37:10.855Z,5.08
2019-01-26T14:40:02.238Z,5.08
2019-01-26T14:45:57.075Z,5.05
2019-01-26T14:48:45.712Z,5.04
2019-01-26T14:51:35.002Z,5.01
2019-01-26T14:54:23.169Z,5.03
2019-01-26T15:00:27.554Z,5.00
2019-01-26T15:03:15.596Z,5.00
2019-01-26T15:06:05.212Z,4.98
2019-01-26T15:08:53.547Z,4.99
2019-01-26T15:11:42.063Z,4.97
2019-01-26T15:17:48.796Z,4.95
2019-01-26T15:20:44.459Z,4.95
2019-01-26T15:23:32.277Z,4.96
2019-01-26T15:26:20.748Z,5.72
2019-01-26T15:44:46.932Z,4.98
2019-01-26T15:47:34.769Z,4.94
2019-01-26T15:50:29.667Z,4.92
2019-01-26T15:59:31.324Z,4.87
2019-01-26T16:20:59.517Z,4.85
2019-01-26T16:23:47.741Z,5.61
2019-01-26T16:26:38.270Z,5.86
2019-01-26T16:42:11.069Z,4.92
2019-01-26T16:45:01.635Z,4.91
2019-01-26T17:00:36.958Z,4.79
2019-01-26T17:03:28.431Z,4.79
2019-01-26T17:09:25.413Z,4.80
2019-01-26T17:12:14.385Z,4.81
2019-01-26T17:15:02.470Z,4.81
2019-01-26T17:17:50.606Z,5.58
2019-01-26T17:20:41.482Z,5.09
2019-01-26T17:26:43.971Z,4.93
2019-01-26T17:29:32.171Z,4.92
2019-01-26T17:32:19.728Z,4.93
2019-01-26T17:35:10.074Z,4.90
2019-01-26T17:37:58.496Z,5.66
2019-01-26T17:43:56.661Z,6.09
2019-01-26T17:52:57.400Z,5.18
2019-01-26T18:05:08.573Z,5.18
2019-01-26T18:11:05.339Z,5.12
2019-01-26T18:20:13.257Z,5.11
2019-01-26T18:26:24.462Z,5.37
2019-01-26T18:29:12.190Z,5.31
2019-01-26T18:32:03.885Z,5.29
2019-01-26T18:37:59.070Z,5.52
2019-01-26T18:40:48.024Z,5.44
2019-01-26T18:43:35.735Z,5.38
2019-01-26T18:46:26.014Z,5.37
2019-01-26T18:49:15.052Z,5.34
2019-01-26T18:55:09.805Z,5.25
2019-01-26T18:57:57.562Z,5.22
2019-01-26T19:07:02.722Z,5.13
2019-01-26T19:09:50.697Z,5.14
2019-01-26T19:12:40.426Z,5.15
2019-01-26T19:15:28.361Z,5.18
2019-01-26T19:18:16.125Z,5.21
2019-01-26T19:21:04.525Z,5.23
2019-01-26T19:23:51.816Z,5.21
2019-01-26T19:26:39.203Z,5.18
2019-01-26T19:29:26.642Z,5.22
2019-01-26T19:32:15.620Z,5.22
2019-01-26T19:35:04.064Z,5.20
2019-01-26T19:47:11.979Z,5.17
2019-01-26T20:02:46.875Z,5.17
2019-01-26T20:05:34.586Z,5.14
2019-01-26T20:14:35.554Z,5.24
2019-01-26T20:17:22.965Z,5.19
2019-01-26T20:20:13.735Z,5.15
2019-01-26T20:26:16.877Z,5.11
2019-01-26T20:29:04.566Z,5.11
2019-01-26T20:31:51.705Z,5.10
2019-01-26T20:34:40.499Z,5.06
2019-01-26T20:37:28.032Z,5.09
2019-01-26T20:40:15.610Z,5.11
2019-01-26T20:43:03.301Z,5.11
2019-01-26T20:45:52.222Z,5.86
2019-01-26T20:48:55.465Z,5.33
2019-01-26T20:51:43.294Z,6.07
2019-01-26T20:57:38.654Z,5.37
2019-01-26T21:00:27.504Z,5.31
2019-01-26T21:03:14.887Z,5.27
2019-01-26T21:12:22.472Z,5.10
2019-01-26T21:15:09.893Z,5.85
2019-01-26T21:18:05.213Z,6.08
2019-01-26T21:20:53.077Z,5.42
2019-01-26T21:23:40.663Z,5.25
2019-01-26T21:32:48.627Z,5.94
2019-01-26T21:35:36.396Z,5.27
2019-01-26T21:38:23.879Z,5.09
2019-01-26T21:41:11.212Z,5.80
2019-01-26T21:44:01.802Z,5.20
2019-01-26T21:46:49.593Z,5.05
2019-01-26T21:49:37.492Z,5.82
2019-01-26T21:52:25.113Z,5.24
2019-01-26T21:55:15.520Z,5.11
2019-01-26T21:58:02.898Z,5.03
2019-01-26T22:00:50.636Z,5.77
2019-01-26T22:09:50.451Z,4.89
2019-01-26T22:15:45.180Z,4.75
2019-01-26T22:21:45.855Z,4.58
2019-01-26T22:24:26.926Z,5.38
2019-01-26T22:27:18.248Z,4.80
2019-01-26T22:30:05.919Z,4.68
2019-01-26T22:32:53.286Z,4.60
2019-01-26T22:35:41.591Z,4.52
2019-01-26T22:50:57.598Z,4.40
2019-01-26T22:53:46.955Z,4.31
2019-01-26T22:56:35.178Z,5.03
2019-01-26T22:59:27.947Z,4.45
2019-01-26T23:02:15.599Z,4.31
2019-01-26T23:05:08.015Z,4.24
2019-01-26T23:07:56.817Z,4.16
2019-01-26T23:10:48.695Z,4.11
2019-01-26T23:20:17.483Z,3.94
2019-01-26T23:39:23.910Z,4.94
2019-01-26T23:42:11.188Z,4.38
2019-01-26T23:45:08.951Z,4.28
2019-01-26T23:47:57.508Z,4.24
